createdAt,value
2023-04-23T00:02:04.179Z,82.39
2023-04-23T00:07:27.062Z,83.56
2023-04-23T00:12:49.885Z,83.70
2023-04-23T00:18:12.669Z,84.60
2023-04-23T00:23:34.745Z,85.61
2023-04-23T00:28:57.334Z,86.42
2023-04-23T00:34:19.795Z,86.94
2023-04-23T00:39:42.376Z,87.42
2023-04-23T00:45:05.420Z,87.87
2023-04-23T00:50:27.364Z,87.95
2023-04-23T00:55:49.683Z,88.83
2023-04-23T01:01:13.086Z,89.34
2023-04-23T01:06:35.541Z,90.56
2023-04-23T01:11:58.871Z,90.82
2023-04-23T01:17:22.016Z,90.98
2023-04-23T01:22:44.580Z,90.90
2023-04-23T01:28:10.453Z,91.06
2023-04-23T01:33:34.391Z,91.46
2023-04-23T01:38:57.373Z,93.14
2023-04-23T01:44:20.210Z,93.12
2023-04-23T01:49:42.487Z,93.67
2023-04-23T01:55:06.093Z,93.23
2023-04-23T02:00:28.817Z,94.25
2023-04-23T02:05:51.848Z,95.08
2023-04-23T02:11:14.227Z,95.78
2023-04-23T02:16:37.352Z,97.38
2023-04-23T02:21:59.919Z,97.75
2023-04-23T02:27:22.971Z,97.45
2023-04-23T02:32:45.976Z,97.45
2023-04-23T02:38:08.246Z,97.32
2023-04-23T02:43:30.398Z,97.35
2023-04-23T02:48:53.127Z,97.97
2023-04-23T02:54:17.694Z,97.77
2023-04-23T02:59:40.337Z,98.75
2023-04-23T03:05:05.570Z,98.99
2023-04-23T03:10:27.792Z,99.83
2023-04-23T03:15:51.458Z,99.98
2023-04-23T03:21:14.128Z,99.08
2023-04-23T03:26:37.212Z,98.57
2023-04-23T03:32:02.656Z,98.52
2023-04-23T03:37:26.265Z,98.56
2023-04-23T03:42:50.013Z,97.21
2023-04-23T03:48:16.665Z,96.67
2023-04-23T03:53:38.669Z,97.57
2023-04-23T03:59:19.107Z,99.78
2023-04-23T04:04:46.993Z,100.00
2023-04-23T04:10:12.047Z,100.00
2023-04-23T04:15:33.901Z,99.83
2023-04-23T04:20:56.286Z,96.97
2023-04-23T04:26:18.049Z,93.28
2023-04-23T04:31:40.014Z,91.63
2023-04-23T04:37:02.090Z,88.24
2023-04-23T04:42:25.999Z,80.64
2023-04-23T04:47:47.744Z,75.78
2023-04-23T04:53:09.700Z,73.86
2023-04-23T04:59:22.043Z,76.75
2023-04-23T05:04:44.717Z,75.47
2023-04-23T05:10:06.929Z,72.62
2023-04-23T05:15:32.060Z,67.96
2023-04-23T05:20:53.840Z,65.61
2023-04-23T05:26:15.929Z,63.99
2023-04-23T05:31:38.363Z,60.73
2023-04-23T05:37:00.088Z,59.05
2023-04-23T05:42:24.764Z,58.72
2023-04-23T05:47:46.802Z,57.54
2023-04-23T05:53:12.554Z,56.98
2023-04-23T05:58:34.440Z,56.22
2023-04-23T06:03:56.963Z,54.05
2023-04-23T06:09:19.112Z,53.27
2023-04-23T06:14:41.559Z,51.59
2023-04-23T06:20:05.565Z,50.72
2023-04-23T06:25:27.401Z,49.31
2023-04-23T06:30:49.791Z,49.24
2023-04-23T06:36:12.136Z,48.22
2023-04-23T06:41:35.056Z,46.73
2023-04-23T06:47:08.778Z,45.12
2023-04-23T06:52:31.101Z,46.25
2023-04-23T06:57:59.585Z,44.77
2023-04-23T07:03:23.190Z,43.44
2023-04-23T07:08:47.263Z,44.09
2023-04-23T07:14:12.981Z,43.91
2023-04-23T07:19:36.473Z,42.65
2023-04-23T07:24:59.636Z,41.84
2023-04-23T07:30:23.673Z,41.18
2023-04-23T07:35:48.677Z,40.40
2023-04-23T07:41:11.046Z,40.58
2023-04-23T07:46:34.700Z,39.99
2023-04-23T07:51:58.562Z,40.75
2023-04-23T08:03:05.292Z,41.65
2023-04-23T08:08:31.245Z,38.56
2023-04-23T08:20:30.709Z,39.74
2023-04-23T08:25:57.282Z,39.51
2023-04-23T08:31:26.617Z,39.54
2023-04-23T08:36:54.526Z,39.92
2023-04-23T08:42:39.871Z,39.48
2023-04-23T08:48:08.206Z,39.72
2023-04-23T08:53:34.644Z,39.70
2023-04-23T08:59:01.301Z,39.85
2023-04-23T09:04:29.558Z,39.79
2023-04-23T09:09:55.109Z,39.97
2023-04-23T09:15:19.246Z,39.61
2023-04-23T09:20:46.505Z,39.68
2023-04-23T09:26:11.996Z,42.01
2023-04-23T09:31:35.346Z,40.63
2023-04-23T09:37:01.592Z,39.63
2023-04-23T09:42:26.778Z,39.46
2023-04-23T09:47:53.372Z,40.42
2023-04-23T09:53:31.530Z,40.08
2023-04-23T09:58:56.756Z,39.58
2023-04-23T10:04:23.070Z,40.51
2023-04-23T10:09:56.624Z,39.95
2023-04-23T10:15:23.055Z,40.05
2023-04-23T10:20:51.000Z,38.92
2023-04-23T10:26:17.316Z,38.31
2023-04-23T10:31:50.872Z,37.56
2023-04-23T10:37:19.904Z,38.16
2023-04-23T10:42:46.734Z,37.38
2023-04-23T10:48:09.996Z,38.33
2023-04-23T10:53:32.796Z,38.20
2023-04-23T10:58:55.247Z,38.09
2023-04-23T11:04:23.427Z,36.91
2023-04-23T11:09:50.315Z,37.13
2023-04-23T11:15:17.246Z,37.64
2023-04-23T11:20:39.413Z,37.77
2023-04-23T11:26:02.432Z,38.98
2023-04-23T11:37:21.494Z,38.18
2023-04-23T11:42:48.213Z,36.94
2023-04-23T11:48:11.211Z,37.49
2023-04-23T11:53:56.911Z,37.48
2023-04-23T11:59:22.294Z,37.82
2023-04-23T12:04:44.836Z,36.63
2023-04-23T12:10:07.743Z,36.92
2023-04-23T12:15:30.043Z,37.53
2023-04-23T12:20:52.050Z,36.64
2023-04-23T12:26:18.243Z,36.33
2023-04-23T12:31:40.428Z,36.23
2023-04-23T12:37:07.500Z,36.41
2023-04-23T12:42:30.050Z,36.52
2023-04-23T12:47:55.482Z,37.39
2023-04-23T12:53:30.453Z,37.20
2023-04-23T12:58:52.465Z,37.05
2023-04-23T13:04:16.348Z,36.32
2023-04-23T13:09:38.283Z,36.49
2023-04-23T13:15:00.666Z,36.33
2023-04-23T13:20:23.887Z,36.23
2023-04-23T13:25:45.909Z,36.44
2023-04-23T13:31:12.553Z,37.12
2023-04-23T13:36:39.006Z,36.55
2023-04-23T13:42:09.440Z,36.73
2023-04-23T13:47:40.212Z,36.96
2023-04-23T13:53:05.706Z,36.96
2023-04-23T14:04:51.275Z,37.27
2023-04-23T14:10:32.771Z,36.63
2023-04-23T14:15:56.096Z,36.60
2023-04-23T14:21:41.226Z,36.98
2023-04-23T14:38:39.804Z,36.68
2023-04-23T14:44:27.842Z,36.91
2023-04-23T14:55:37.301Z,36.86
2023-04-23T15:01:01.305Z,37.10
2023-04-23T15:06:23.676Z,37.36
2023-04-23T15:11:46.180Z,37.09
2023-04-23T15:17:08.641Z,37.41
2023-04-23T15:22:34.145Z,38.13
2023-04-23T15:28:16.706Z,37.93
2023-04-23T15:33:39.341Z,38.18
2023-04-23T15:39:01.625Z,38.48
2023-04-23T15:44:25.568Z,38.45
2023-04-23T15:49:47.588Z,38.86
2023-04-23T15:55:09.986Z,38.83
2023-04-23T16:00:34.133Z,39.27
2023-04-23T16:05:56.304Z,39.62
2023-04-23T16:11:19.492Z,40.29
2023-04-23T16:16:42.712Z,40.81
2023-04-23T16:22:05.503Z,41.46
2023-04-23T16:27:28.913Z,41.96
2023-04-23T16:32:51.935Z,42.26
2023-04-23T16:38:16.025Z,42.65
2023-04-23T16:43:39.583Z,43.25
2023-04-23T16:49:03.090Z,43.26
2023-04-23T16:54:25.619Z,43.99
2023-04-23T16:59:49.135Z,44.57
2023-04-23T17:05:39.391Z,44.72
2023-04-23T17:53:12.980Z,48.15
2023-04-23T17:58:36.046Z,48.46
2023-04-23T18:04:00.887Z,48.89
2023-04-23T18:09:24.509Z,49.39
2023-04-23T18:14:47.225Z,49.63
2023-04-23T18:20:10.607Z,50.31
2023-04-23T18:25:34.019Z,50.39
2023-04-23T18:31:02.916Z,51.01
2023-04-23T18:36:34.168Z,51.18
2023-04-23T18:41:58.980Z,51.46
2023-04-23T18:47:29.648Z,51.94
2023-04-23T18:52:52.065Z,52.14
2023-04-23T18:58:14.741Z,52.79
2023-04-23T19:03:37.730Z,53.23
2023-04-23T19:09:00.949Z,53.80
2023-04-23T19:14:24.218Z,54.32
2023-04-23T19:19:49.239Z,54.33
2023-04-23T19:25:13.097Z,54.68
2023-04-23T19:30:35.743Z,55.62
2023-04-23T19:35:59.499Z,56.08
2023-04-23T19:41:22.913Z,56.57
2023-04-23T19:46:45.387Z,56.88
2023-04-23T19:52:09.738Z,57.23
2023-04-23T19:57:31.801Z,58.14
2023-04-23T20:02:56.149Z,58.53
2023-04-23T20:08:26.463Z,59.32
2023-04-23T20:13:49.734Z,59.94
2023-04-23T20:19:13.934Z,60.28
2023-04-23T20:24:39.204Z,60.32
2023-04-23T20:30:02.092Z,60.71
2023-04-23T20:35:26.681Z,61.43
2023-04-23T20:40:50.673Z,61.73
2023-04-23T20:46:13.511Z,62.44
2023-04-23T20:51:36.686Z,62.61
2023-04-23T20:56:59.386Z,62.77
2023-04-23T21:02:21.918Z,63.45
2023-04-23T21:07:45.585Z,63.60
2023-04-23T21:13:11.137Z,64.84
2023-04-23T21:18:34.187Z,65.17
2023-04-23T21:23:57.345Z,65.82
2023-04-23T21:29:20.150Z,66.57
2023-04-23T21:34:42.430Z,66.75
2023-04-23T21:40:05.810Z,67.25
2023-04-23T21:45:28.772Z,67.84
2023-04-23T21:50:52.556Z,68.48
2023-04-23T21:56:15.769Z,69.31
2023-04-23T22:01:38.411Z,69.33
2023-04-23T22:07:03.070Z,69.62
2023-04-23T22:12:26.348Z,69.83
2023-04-23T22:17:51.231Z,70.17
2023-04-23T22:23:14.105Z,71.17
2023-04-23T22:28:36.350Z,71.41
2023-04-23T22:33:59.069Z,71.92
2023-04-23T22:39:21.322Z,72.77
2023-04-23T22:44:44.282Z,73.26
2023-04-23T22:50:07.762Z,73.68
2023-04-23T22:55:30.614Z,73.67
2023-04-23T23:00:53.015Z,73.99
2023-04-23T23:06:15.947Z,74.58
2023-04-23T23:11:38.330Z,74.62
2023-04-23T23:17:00.732Z,75.20
2023-04-23T23:22:22.970Z,75.71
2023-04-23T23:27:46.171Z,76.30
2023-04-23T23:33:08.028Z,76.42
2023-04-23T23:38:30.471Z,76.61
2023-04-23T23:43:53.405Z,76.98
2023-04-23T23:49:16.082Z,77.80
2023-04-23T23:54:38.540Z,78.46
